sensor_id;sensor_type;location;lat;lon;timestamp;P1;durP1;ratioP1;P2;durP2;ratioP2
17943;SDS011;9097;47.028;15.444;2023-04-25T00:01:40;2.47;;;1.23;;
17943;SDS011;9097;47.028;15.444;2023-04-25T00:04:44;1.60;;;1.50;;
17943;SDS011;9097;47.028;15.444;2023-04-25T00:07:48;3.07;;;1.33;;
17943;SDS011;9097;47.028;15.444;2023-04-25T00:10:51;1.97;;;1.10;;
17943;SDS011;9097;47.028;15.444;2023-04-25T00:13:54;1.03;;;0.90;;
17943;SDS011;9097;47.028;15.444;2023-04-25T00:16:57;3.03;;;1.33;;
17943;SDS011;9097;47.028;15.444;2023-04-25T00:20:01;1.77;;;1.03;;
17943;SDS011;9097;47.028;15.444;2023-04-25T00:23:09;0.97;;;0.80;;
17943;SDS011;9097;47.028;15.444;2023-04-25T00:26:11;2.23;;;1.10;;
17943;SDS011;9097;47.028;15.444;2023-04-25T00:29:14;1.20;;;1.10;;
17943;SDS011;9097;47.028;15.444;2023-04-25T00:32:17;3.33;;;0.80;;
17943;SDS011;9097;47.028;15.444;2023-04-25T00:35:21;1.27;;;1.17;;
17943;SDS011;9097;47.028;15.444;2023-04-25T00:38:23;0.97;;;0.70;;
17943;SDS011;9097;47.028;15.444;2023-04-25T00:41:26;3.10;;;1.40;;
17943;SDS011;9097;47.028;15.444;2023-04-25T00:44:30;1.73;;;1.43;;
17943;SDS011;9097;47.028;15.444;2023-04-25T00:47:33;0.80;;;0.80;;
17943;SDS011;9097;47.028;15.444;2023-04-25T00:50:38;1.90;;;0.97;;
17943;SDS011;9097;47.028;15.444;2023-04-25T00:53:41;1.43;;;1.10;;
17943;SDS011;9097;47.028;15.444;2023-04-25T00:56:44;1.13;;;1.07;;
17943;SDS011;9097;47.028;15.444;2023-04-25T00:59:47;1.10;;;0.60;;
17943;SDS011;9097;47.028;15.444;2023-04-25T01:02:50;1.33;;;1.10;;
17943;SDS011;9097;47.028;15.444;2023-04-25T01:05:54;0.63;;;0.63;;
17943;SDS011;9097;47.028;15.444;2023-04-25T01:08:56;1.43;;;1.20;;
17943;SDS011;9097;47.028;15.444;2023-04-25T01:11:59;3.07;;;1.77;;
17943;SDS011;9097;47.028;15.444;2023-04-25T01:15:03;0.80;;;0.80;;
17943;SDS011;9097;47.028;15.444;2023-04-25T01:18:06;0.67;;;0.67;;
17943;SDS011;9097;47.028;15.444;2023-04-25T01:21:10;2.10;;;0.97;;
17943;SDS011;9097;47.028;15.444;2023-04-25T01:24:13;1.50;;;1.07;;
17943;SDS011;9097;47.028;15.444;2023-04-25T01:27:16;1.60;;;1.43;;
17943;SDS011;9097;47.028;15.444;2023-04-25T01:30:19;1.23;;;1.00;;
17943;SDS011;9097;47.028;15.444;2023-04-25T01:33:22;1.53;;;0.93;;
17943;SDS011;9097;47.028;15.444;2023-04-25T01:36:26;1.03;;;1.00;;
17943;SDS011;9097;47.028;15.444;2023-04-25T01:39:29;1.83;;;0.90;;
17943;SDS011;9097;47.028;15.444;2023-04-25T01:42:31;1.13;;;1.13;;
17943;SDS011;9097;47.028;15.444;2023-04-25T01:45:34;1.53;;;1.27;;
17943;SDS011;9097;47.028;15.444;2023-04-25T01:48:37;2.07;;;1.10;;
17943;SDS011;9097;47.028;15.444;2023-04-25T01:51:41;1.90;;;1.03;;
17943;SDS011;9097;47.028;15.444;2023-04-25T01:54:43;4.07;;;1.33;;
17943;SDS011;9097;47.028;15.444;2023-04-25T01:57:46;1.73;;;1.30;;
17943;SDS011;9097;47.028;15.444;2023-04-25T02:00:48;1.70;;;1.60;;
17943;SDS011;9097;47.028;15.444;2023-04-25T02:03:51;1.17;;;1.07;;
17943;SDS011;9097;47.028;15.444;2023-04-25T02:06:55;1.70;;;1.50;;
17943;SDS011;9097;47.028;15.444;2023-04-25T02:09:57;1.07;;;0.80;;
17943;SDS011;9097;47.028;15.444;2023-04-25T02:13:00;0.90;;;0.83;;
17943;SDS011;9097;47.028;15.444;2023-04-25T02:16:02;2.80;;;1.17;;
17943;SDS011;9097;47.028;15.444;2023-04-25T02:19:05;2.13;;;1.37;;
17943;SDS011;9097;47.028;15.444;2023-04-25T02:22:09;1.10;;;1.00;;
17943;SDS011;9097;47.028;15.444;2023-04-25T02:25:12;1.40;;;1.13;;
17943;SDS011;9097;47.028;15.444;2023-04-25T02:28:16;1.60;;;1.23;;
17943;SDS011;9097;47.028;15.444;2023-04-25T02:31:18;1.33;;;1.00;;
17943;SDS011;9097;47.028;15.444;2023-04-25T02:34:21;1.53;;;1.40;;
17943;SDS011;9097;47.028;15.444;2023-04-25T02:37:25;1.60;;;1.33;;
17943;SDS011;9097;47.028;15.444;2023-04-25T02:40:27;1.17;;;1.07;;
17943;SDS011;9097;47.028;15.444;2023-04-25T02:43:30;1.37;;;0.90;;
17943;SDS011;9097;47.028;15.444;2023-04-25T02:46:32;1.40;;;1.23;;
17943;SDS011;9097;47.028;15.444;2023-04-25T02:49:35;1.77;;;1.37;;
17943;SDS011;9097;47.028;15.444;2023-04-25T02:52:39;2.40;;;2.20;;
17943;SDS011;9097;47.028;15.444;2023-04-25T02:55:42;4.20;;;2.00;;
17943;SDS011;9097;47.028;15.444;2023-04-25T02:58:44;3.93;;;1.87;;
17943;SDS011;9097;47.028;15.444;2023-04-25T03:01:47;5.70;;;2.73;;
17943;SDS011;9097;47.028;15.444;2023-04-25T03:04:50;2.67;;;1.77;;
17943;SDS011;9097;47.028;15.444;2023-04-25T03:07:55;3.20;;;2.27;;
17943;SDS011;9097;47.028;15.444;2023-04-25T03:10:58;2.90;;;2.27;;
17943;SDS011;9097;47.028;15.444;2023-04-25T03:14:00;2.30;;;2.10;;
17943;SDS011;9097;47.028;15.444;2023-04-25T03:17:03;2.83;;;1.80;;
17943;SDS011;9097;47.028;15.444;2023-04-25T03:20:06;3.23;;;2.77;;
17943;SDS011;9097;47.028;15.444;2023-04-25T03:23:10;10.40;;;2.97;;
17943;SDS011;9097;47.028;15.444;2023-04-25T03:26:13;6.77;;;2.70;;
17943;SDS011;9097;47.028;15.444;2023-04-25T03:29:15;4.37;;;2.50;;
17943;SDS011;9097;47.028;15.444;2023-04-25T03:32:18;3.47;;;2.03;;
17943;SDS011;9097;47.028;15.444;2023-04-25T03:35:20;5.00;;;2.67;;
17943;SDS011;9097;47.028;15.444;2023-04-25T03:38:25;3.17;;;2.37;;
17943;SDS011;9097;47.028;15.444;2023-04-25T03:41:27;3.57;;;2.37;;
17943;SDS011;9097;47.028;15.444;2023-04-25T03:44:30;3.57;;;2.37;;
17943;SDS011;9097;47.028;15.444;2023-04-25T03:47:32;2.10;;;1.90;;
17943;SDS011;9097;47.028;15.444;2023-04-25T03:50:35;2.60;;;1.70;;
17943;SDS011;9097;47.028;15.444;2023-04-25T03:53:39;4.13;;;2.17;;
17943;SDS011;9097;47.028;15.444;2023-04-25T03:56:41;2.43;;;2.23;;
17943;SDS011;9097;47.028;15.444;2023-04-25T03:59:44;2.03;;;1.67;;
17943;SDS011;9097;47.028;15.444;2023-04-25T04:02:46;2.30;;;1.40;;
17943;SDS011;9097;47.028;15.444;2023-04-25T04:05:49;1.50;;;1.40;;
17943;SDS011;9097;47.028;15.444;2023-04-25T04:08:53;1.77;;;1.20;;
17943;SDS011;9097;47.028;15.444;2023-04-25T04:11:55;1.63;;;1.53;;
17943;SDS011;9097;47.028;15.444;2023-04-25T04:14:58;2.17;;;1.63;;
17943;SDS011;9097;47.028;15.444;2023-04-25T04:18:00;3.80;;;1.60;;
17943;SDS011;9097;47.028;15.444;2023-04-25T04:21:03;2.03;;;1.57;;
17943;SDS011;9097;47.028;15.444;2023-04-25T04:24:07;2.63;;;1.97;;
17943;SDS011;9097;47.028;15.444;2023-04-25T04:27:10;2.97;;;1.97;;
17943;SDS011;9097;47.028;15.444;2023-04-25T04:30:13;4.43;;;1.43;;
17943;SDS011;9097;47.028;15.444;2023-04-25T04:33:16;1.87;;;1.27;;
17943;SDS011;9097;47.028;15.444;2023-04-25T04:36:20;2.50;;;1.57;;
17943;SDS011;9097;47.028;15.444;2023-04-25T04:39:24;2.60;;;1.90;;
17943;SDS011;9097;47.028;15.444;2023-04-25T04:42:27;2.77;;;1.53;;
17943;SDS011;9097;47.028;15.444;2023-04-25T04:45:29;4.03;;;1.67;;
17943;SDS011;9097;47.028;15.444;2023-04-25T04:48:33;2.30;;;1.53;;
17943;SDS011;9097;47.028;15.444;2023-04-25T04:51:37;5.23;;;2.30;;
17943;SDS011;9097;47.028;15.444;2023-04-25T04:54:42;1.87;;;1.60;;
17943;SDS011;9097;47.028;15.444;2023-04-25T04:57:45;1.27;;;1.17;;
17943;SDS011;9097;47.028;15.444;2023-04-25T05:00:48;2.70;;;2.10;;
17943;SDS011;9097;47.028;15.444;2023-04-25T05:03:50;3.43;;;2.20;;
17943;SDS011;9097;47.028;15.444;2023-04-25T05:06:52;1.80;;;1.70;;
17943;SDS011;9097;47.028;15.444;2023-04-25T05:09:57;2.50;;;2.30;;
17943;SDS011;9097;47.028;15.444;2023-04-25T05:12:59;3.03;;;1.70;;
17943;SDS011;9097;47.028;15.444;2023-04-25T05:16:02;1.53;;;1.10;;
17943;SDS011;9097;47.028;15.444;2023-04-25T05:19:04;4.53;;;2.20;;
17943;SDS011;9097;47.028;15.444;2023-04-25T05:22:07;3.93;;;2.10;;
17943;SDS011;9097;47.028;15.444;2023-04-25T05:25:11;3.73;;;2.43;;
17943;SDS011;9097;47.028;15.444;2023-04-25T05:28:13;3.07;;;2.10;;
17943;SDS011;9097;47.028;15.444;2023-04-25T05:31:16;1.70;;;1.53;;
17943;SDS011;9097;47.028;15.444;2023-04-25T05:34:18;4.30;;;2.77;;
17943;SDS011;9097;47.028;15.444;2023-04-25T05:37:21;1.97;;;1.73;;
17943;SDS011;9097;47.028;15.444;2023-04-25T05:40:26;2.07;;;1.70;;
17943;SDS011;9097;47.028;15.444;2023-04-25T05:43:28;2.00;;;1.90;;
17943;SDS011;9097;47.028;15.444;2023-04-25T05:46:31;2.50;;;1.77;;
17943;SDS011;9097;47.028;15.444;2023-04-25T05:49:33;3.00;;;1.80;;
17943;SDS011;9097;47.028;15.444;2023-04-25T05:52:36;2.50;;;1.80;;
17943;SDS011;9097;47.028;15.444;2023-04-25T05:55:40;2.20;;;2.00;;
17943;SDS011;9097;47.028;15.444;2023-04-25T05:58:43;4.67;;;2.67;;
17943;SDS011;9097;47.028;15.444;2023-04-25T06:01:45;3.10;;;2.43;;
17943;SDS011;9097;47.028;15.444;2023-04-25T06:04:49;2.17;;;1.93;;
17943;SDS011;9097;47.028;15.444;2023-04-25T06:07:51;7.63;;;3.27;;
17943;SDS011;9097;47.028;15.444;2023-04-25T06:10:55;5.83;;;2.50;;
17943;SDS011;9097;47.028;15.444;2023-04-25T06:13:58;6.00;;;3.50;;
17943;SDS011;9097;47.028;15.444;2023-04-25T06:17:00;4.57;;;3.03;;
17943;SDS011;9097;47.028;15.444;2023-04-25T06:20:08;3.83;;;3.03;;
17943;SDS011;9097;47.028;15.444;2023-04-25T06:23:10;5.60;;;2.30;;
17943;SDS011;9097;47.028;15.444;2023-04-25T06:26:14;3.73;;;1.93;;
17943;SDS011;9097;47.028;15.444;2023-04-25T06:29:17;4.17;;;2.90;;
17943;SDS011;9097;47.028;15.444;2023-04-25T06:32:19;2.83;;;2.53;;
17943;SDS011;9097;47.028;15.444;2023-04-25T06:35:22;3.60;;;2.93;;
17943;SDS011;9097;47.028;15.444;2023-04-25T06:38:24;3.43;;;1.83;;
17943;SDS011;9097;47.028;15.444;2023-04-25T06:41:28;1.77;;;1.37;;
17943;SDS011;9097;47.028;15.444;2023-04-25T06:44:31;4.30;;;2.73;;
17943;SDS011;9097;47.028;15.444;2023-04-25T06:47:33;3.87;;;2.20;;
17943;SDS011;9097;47.028;15.444;2023-04-25T06:50:36;1.30;;;1.20;;
17943;SDS011;9097;47.028;15.444;2023-04-25T06:53:39;2.70;;;1.40;;
17943;SDS011;9097;47.028;15.444;2023-04-25T06:56:43;1.70;;;1.57;;
17943;SDS011;9097;47.028;15.444;2023-04-25T06:59:45;2.57;;;1.50;;
17943;SDS011;9097;47.028;15.444;2023-04-25T07:02:48;5.53;;;1.80;;
17943;SDS011;9097;47.028;15.444;2023-04-25T07:05:51;2.00;;;1.27;;
17943;SDS011;9097;47.028;15.444;2023-04-25T07:08:53;3.07;;;2.13;;
17943;SDS011;9097;47.028;15.444;2023-04-25T07:11:58;2.73;;;1.70;;
17943;SDS011;9097;47.028;15.444;2023-04-25T07:15:01;2.93;;;1.63;;
17943;SDS011;9097;47.028;15.444;2023-04-25T07:18:06;1.87;;;1.40;;
17943;SDS011;9097;47.028;15.444;2023-04-25T07:21:08;1.37;;;1.27;;
17943;SDS011;9097;47.028;15.444;2023-04-25T07:24:11;1.10;;;1.00;;
17943;SDS011;9097;47.028;15.444;2023-04-25T07:27:15;2.43;;;2.03;;
17943;SDS011;9097;47.028;15.444;2023-04-25T07:30:17;1.77;;;1.50;;
17943;SDS011;9097;47.028;15.444;2023-04-25T07:33:20;2.03;;;1.70;;
17943;SDS011;9097;47.028;15.444;2023-04-25T07:36:23;1.33;;;1.23;;
17943;SDS011;9097;47.028;15.444;2023-04-25T07:39:27;1.17;;;1.07;;
17943;SDS011;9097;47.028;15.444;2023-04-25T07:42:31;2.83;;;1.80;;
17943;SDS011;9097;47.028;15.444;2023-04-25T07:45:33;2.37;;;1.30;;
17943;SDS011;9097;47.028;15.444;2023-04-25T07:48:36;1.02;;;0.80;;
17943;SDS011;9097;47.028;15.444;2023-04-25T07:51:38;1.15;;;0.82;;
17943;SDS011;9097;47.028;15.444;2023-04-25T07:54:41;0.82;;;0.82;;
17943;SDS011;9097;47.028;15.444;2023-04-25T07:57:45;1.83;;;1.20;;
17943;SDS011;9097;47.028;15.444;2023-04-25T08:00:47;1.67;;;1.05;;
17943;SDS011;9097;47.028;15.444;2023-04-25T08:03:50;0.73;;;0.68;;
17943;SDS011;9097;47.028;15.444;2023-04-25T08:06:52;0.70;;;0.70;;
17943;SDS011;9097;47.028;15.444;2023-04-25T08:09:55;1.85;;;0.60;;
17943;SDS011;9097;47.028;15.444;2023-04-25T08:12:59;0.50;;;0.50;;
17943;SDS011;9097;47.028;15.444;2023-04-25T08:16:01;1.35;;;0.43;;
17943;SDS011;9097;47.028;15.444;2023-04-25T08:19:04;0.53;;;0.47;;
17943;SDS011;9097;47.028;15.444;2023-04-25T08:22:06;0.70;;;0.70;;
17943;SDS011;9097;47.028;15.444;2023-04-25T08:25:09;1.97;;;0.97;;
17943;SDS011;9097;47.028;15.444;2023-04-25T08:28:13;0.40;;;0.40;;
17943;SDS011;9097;47.028;15.444;2023-04-25T08:31:16;0.83;;;0.50;;
17943;SDS011;9097;47.028;15.444;2023-04-25T08:34:19;0.83;;;0.83;;
17943;SDS011;9097;47.028;15.444;2023-04-25T08:37:22;1.07;;;0.97;;
17943;SDS011;9097;47.028;15.444;2023-04-25T08:40:26;0.73;;;0.33;;
17943;SDS011;9097;47.028;15.444;2023-04-25T08:43:31;0.43;;;0.33;;
17943;SDS011;9097;47.028;15.444;2023-04-25T08:46:34;0.20;;;0.20;;
17943;SDS011;9097;47.028;15.444;2023-04-25T08:49:37;0.33;;;0.20;;
17943;SDS011;9097;47.028;15.444;2023-04-25T08:52:42;0.53;;;0.53;;
17943;SDS011;9097;47.028;15.444;2023-04-25T08:55:46;0.27;;;0.27;;
17943;SDS011;9097;47.028;15.444;2023-04-25T08:58:50;0.40;;;0.40;;
17943;SDS011;9097;47.028;15.444;2023-04-25T09:01:52;0.57;;;0.57;;
17943;SDS011;9097;47.028;15.444;2023-04-25T09:04:55;1.40;;;0.57;;
17943;SDS011;9097;47.028;15.444;2023-04-25T09:07:58;0.53;;;0.50;;
17943;SDS011;9097;47.028;15.444;2023-04-25T09:11:01;0.40;;;0.30;;
17943;SDS011;9097;47.028;15.444;2023-04-25T09:14:11;1.60;;;0.37;;
17943;SDS011;9097;47.028;15.444;2023-04-25T09:17:14;0.20;;;0.20;;
17943;SDS011;9097;47.028;15.444;2023-04-25T09:20:16;0.20;;;0.20;;
17943;SDS011;9097;47.028;15.444;2023-04-25T09:23:20;0.67;;;0.37;;
17943;SDS011;9097;47.028;15.444;2023-04-25T09:26:23;0.40;;;0.30;;
17943;SDS011;9097;47.028;15.444;2023-04-25T09:29:33;0.40;;;0.30;;
17943;SDS011;9097;47.028;15.444;2023-04-25T09:32:36;0.57;;;0.30;;
17943;SDS011;9097;47.028;15.444;2023-04-25T09:35:39;0.10;;;0.10;;
17943;SDS011;9097;47.028;15.444;2023-04-25T09:38:43;0.40;;;0.40;;
17943;SDS011;9097;47.028;15.444;2023-04-25T09:41:45;0.57;;;0.57;;
17943;SDS011;9097;47.028;15.444;2023-04-25T09:44:49;0.63;;;0.32;;
17943;SDS011;9097;47.028;15.444;2023-04-25T09:47:55;1.67;;;0.50;;
17943;SDS011;9097;47.028;15.444;2023-04-25T09:51:05;0.20;;;0.20;;
17943;SDS011;9097;47.028;15.444;2023-04-25T09:54:08;0.67;;;0.40;;
17943;SDS011;9097;47.028;15.444;2023-04-25T09:57:11;0.40;;;0.35;;
17943;SDS011;9097;47.028;15.444;2023-04-25T10:00:16;1.73;;;0.35;;
17943;SDS011;9097;47.028;15.444;2023-04-25T10:03:19;1.70;;;0.40;;
17943;SDS011;9097;47.028;15.444;2023-04-25T10:06:24;0.20;;;0.20;;
17943;SDS011;9097;47.028;15.444;2023-04-25T10:09:28;0.35;;;0.32;;
17943;SDS011;9097;47.028;15.444;2023-04-25T10:12:32;0.40;;;0.30;;
17943;SDS011;9097;47.028;15.444;2023-04-25T10:15:39;0.20;;;0.20;;
17943;SDS011;9097;47.028;15.444;2023-04-25T10:18:43;0.20;;;0.20;;
17943;SDS011;9097;47.028;15.444;2023-04-25T10:21:48;1.48;;;0.30;;
17943;SDS011;9097;47.028;15.444;2023-04-25T10:24:52;0.60;;;0.40;;
17943;SDS011;9097;47.028;15.444;2023-04-25T10:27:55;0.38;;;0.30;;
17943;SDS011;9097;47.028;15.444;2023-04-25T10:30:59;0.35;;;0.25;;
17943;SDS011;9097;47.028;15.444;2023-04-25T10:34:02;1.60;;;1.17;;
17943;SDS011;9097;47.028;15.444;2023-04-25T10:37:08;0.43;;;0.40;;
17943;SDS011;9097;47.028;15.444;2023-04-25T10:40:12;0.52;;;0.30;;
17943;SDS011;9097;47.028;15.444;2023-04-25T10:43:33;0.30;;;0.30;;
17943;SDS011;9097;47.028;15.444;2023-04-25T10:46:38;1.02;;;0.28;;
17943;SDS011;9097;47.028;15.444;2023-04-25T10:49:44;0.40;;;0.38;;
17943;SDS011;9097;47.028;15.444;2023-04-25T10:52:46;0.70;;;0.70;;
17943;SDS011;9097;47.028;15.444;2023-04-25T10:55:49;0.40;;;0.40;;
17943;SDS011;9097;47.028;15.444;2023-04-25T10:58:52;0.20;;;0.20;;
17943;SDS011;9097;47.028;15.444;2023-04-25T11:02:11;0.20;;;0.20;;
17943;SDS011;9097;47.028;15.444;2023-04-25T11:05:21;0.90;;;0.40;;
17943;SDS011;9097;47.028;15.444;2023-04-25T11:08:27;0.65;;;0.35;;
17943;SDS011;9097;47.028;15.444;2023-04-25T11:11:38;0.30;;;0.10;;
17943;SDS011;9097;47.028;15.444;2023-04-25T11:14:40;0.22;;;0.22;;
17943;SDS011;9097;47.028;15.444;2023-04-25T11:17:44;0.20;;;0.20;;
17943;SDS011;9097;47.028;15.444;2023-04-25T11:20:47;0.40;;;0.35;;
17943;SDS011;9097;47.028;15.444;2023-04-25T11:23:50;1.50;;;0.40;;
17943;SDS011;9097;47.028;15.444;2023-04-25T11:26:52;0.30;;;0.30;;
17943;SDS011;9097;47.028;15.444;2023-04-25T11:29:55;0.30;;;0.20;;
17943;SDS011;9097;47.028;15.444;2023-04-25T11:32:59;0.35;;;0.30;;
17943;SDS011;9097;47.028;15.444;2023-04-25T11:36:04;0.65;;;0.60;;
17943;SDS011;9097;47.028;15.444;2023-04-25T11:39:06;0.43;;;0.43;;
17943;SDS011;9097;47.028;15.444;2023-04-25T11:42:09;0.93;;;0.40;;
17943;SDS011;9097;47.028;15.444;2023-04-25T11:45:11;0.70;;;0.70;;
17943;SDS011;9097;47.028;15.444;2023-04-25T11:48:16;0.30;;;0.30;;
17943;SDS011;9097;47.028;15.444;2023-04-25T11:51:18;0.40;;;0.20;;
17943;SDS011;9097;47.028;15.444;2023-04-25T11:54:23;0.30;;;0.20;;
17943;SDS011;9097;47.028;15.444;2023-04-25T11:57:26;0.55;;;0.20;;
17943;SDS011;9097;47.028;15.444;2023-04-25T12:00:29;0.40;;;0.28;;
17943;SDS011;9097;47.028;15.444;2023-04-25T12:03:33;0.55;;;0.30;;
17943;SDS011;9097;47.028;15.444;2023-04-25T12:06:36;0.50;;;0.30;;
17943;SDS011;9097;47.028;15.444;2023-04-25T12:09:40;0.20;;;0.15;;
17943;SDS011;9097;47.028;15.444;2023-04-25T12:12:43;0.28;;;0.28;;
17943;SDS011;9097;47.028;15.444;2023-04-25T12:15:45;2.20;;;0.30;;
17943;SDS011;9097;47.028;15.444;2023-04-25T12:18:50;0.17;;;0.17;;
17943;SDS011;9097;47.028;15.444;2023-04-25T12:21:54;0.07;;;0.07;;
17943;SDS011;9097;47.028;15.444;2023-04-25T12:24:57;0.20;;;0.20;;
17943;SDS011;9097;47.028;15.444;2023-04-25T12:28:08;1.73;;;0.57;;
17943;SDS011;9097;47.028;15.444;2023-04-25T12:31:12;0.50;;;0.50;;
17943;SDS011;9097;47.028;15.444;2023-04-25T12:34:17;0.23;;;0.23;;
17943;SDS011;9097;47.028;15.444;2023-04-25T12:37:20;0.37;;;0.27;;
17943;SDS011;9097;47.028;15.444;2023-04-25T12:40:22;0.53;;;0.27;;
17943;SDS011;9097;47.028;15.444;2023-04-25T12:43:25;0.60;;;0.60;;
17943;SDS011;9097;47.028;15.444;2023-04-25T12:46:27;0.30;;;0.27;;
17943;SDS011;9097;47.028;15.444;2023-04-25T12:49:31;0.40;;;0.40;;
17943;SDS011;9097;47.028;15.444;2023-04-25T12:52:34;0.27;;;0.27;;
17943;SDS011;9097;47.028;15.444;2023-04-25T12:55:37;0.53;;;0.40;;
17943;SDS011;9097;47.028;15.444;2023-04-25T12:58:39;0.40;;;0.30;;
17943;SDS011;9097;47.028;15.444;2023-04-25T13:01:44;0.30;;;0.30;;
17943;SDS011;9097;47.028;15.444;2023-04-25T13:04:48;0.50;;;0.30;;
17943;SDS011;9097;47.028;15.444;2023-04-25T13:07:51;0.30;;;0.27;;
17943;SDS011;9097;47.028;15.444;2023-04-25T13:10:54;0.23;;;0.20;;
17943;SDS011;9097;47.028;15.444;2023-04-25T13:13:56;0.50;;;0.50;;
17943;SDS011;9097;47.028;15.444;2023-04-25T13:16:59;0.10;;;0.10;;
17943;SDS011;9097;47.028;15.444;2023-04-25T13:20:03;0.67;;;0.27;;
17943;SDS011;9097;47.028;15.444;2023-04-25T13:23:09;0.40;;;0.10;;
17943;SDS011;9097;47.028;15.444;2023-04-25T13:26:12;0.63;;;0.33;;
17943;SDS011;9097;47.028;15.444;2023-04-25T13:29:14;0.20;;;0.20;;
17943;SDS011;9097;47.028;15.444;2023-04-25T13:32:17;0.20;;;0.20;;
17943;SDS011;9097;47.028;15.444;2023-04-25T13:35:21;0.30;;;0.28;;
17943;SDS011;9097;47.028;15.444;2023-04-25T13:38:24;1.10;;;0.37;;
17943;SDS011;9097;47.028;15.444;2023-04-25T13:41:27;0.73;;;0.43;;
17943;SDS011;9097;47.028;15.444;2023-04-25T13:44:29;0.25;;;0.20;;
17943;SDS011;9097;47.028;15.444;2023-04-25T13:47:32;0.57;;;0.32;;
17943;SDS011;9097;47.028;15.444;2023-04-25T13:50:36;0.25;;;0.25;;
17943;SDS011;9097;47.028;15.444;2023-04-25T13:53:39;0.10;;;0.10;;
17943;SDS011;9097;47.028;15.444;2023-04-25T13:56:41;0.50;;;0.40;;
17943;SDS011;9097;47.028;15.444;2023-04-25T13:59:43;0.20;;;0.20;;
17943;SDS011;9097;47.028;15.444;2023-04-25T14:02:46;0.73;;;0.20;;
17943;SDS011;9097;47.028;15.444;2023-04-25T14:05:51;0.30;;;0.20;;
17943;SDS011;9097;47.028;15.444;2023-04-25T14:08:54;0.30;;;0.20;;
17943;SDS011;9097;47.028;15.444;2023-04-25T14:11:56;2.42;;;0.25;;
17943;SDS011;9097;47.028;15.444;2023-04-25T14:14:59;0.17;;;0.10;;
17943;SDS011;9097;47.028;15.444;2023-04-25T14:18:01;0.50;;;0.38;;
17943;SDS011;9097;47.028;15.444;2023-04-25T14:21:05;0.40;;;0.30;;
17943;SDS011;9097;47.028;15.444;2023-04-25T14:24:08;0.10;;;0.10;;
17943;SDS011;9097;47.028;15.444;2023-04-25T14:27:11;1.55;;;0.22;;
17943;SDS011;9097;47.028;15.444;2023-04-25T14:30:13;0.20;;;0.10;;
17943;SDS011;9097;47.028;15.444;2023-04-25T14:33:15;0.60;;;0.40;;
17943;SDS011;9097;47.028;15.444;2023-04-25T14:36:20;0.38;;;0.32;;
17943;SDS011;9097;47.028;15.444;2023-04-25T14:39:22;0.93;;;0.50;;
17943;SDS011;9097;47.028;15.444;2023-04-25T14:42:24;0.53;;;0.33;;
17943;SDS011;9097;47.028;15.444;2023-04-25T14:45:27;0.45;;;0.40;;
17943;SDS011;9097;47.028;15.444;2023-04-25T14:48:30;0.15;;;0.15;;
17943;SDS011;9097;47.028;15.444;2023-04-25T14:51:34;0.47;;;0.37;;
17943;SDS011;9097;47.028;15.444;2023-04-25T14:54:36;0.47;;;0.47;;
17943;SDS011;9097;47.028;15.444;2023-04-25T14:57:39;0.20;;;0.20;;
17943;SDS011;9097;47.028;15.444;2023-04-25T15:00:41;0.45;;;0.40;;
17943;SDS011;9097;47.028;15.444;2023-04-25T15:03:44;0.30;;;0.20;;
17943;SDS011;9097;47.028;15.444;2023-04-25T15:06:48;0.22;;;0.13;;
17943;SDS011;9097;47.028;15.444;2023-04-25T15:09:51;0.20;;;0.20;;
17943;SDS011;9097;47.028;15.444;2023-04-25T15:12:56;0.33;;;0.30;;
17943;SDS011;9097;47.028;15.444;2023-04-25T15:15:58;0.15;;;0.15;;
17943;SDS011;9097;47.028;15.444;2023-04-25T15:19:01;0.95;;;0.50;;
17943;SDS011;9097;47.028;15.444;2023-04-25T15:22:06;0.50;;;0.40;;
17943;SDS011;9097;47.028;15.444;2023-04-25T15:25:08;0.40;;;0.40;;
17943;SDS011;9097;47.028;15.444;2023-04-25T15:28:11;0.30;;;0.30;;
17943;SDS011;9097;47.028;15.444;2023-04-25T15:31:16;0.45;;;0.25;;
17943;SDS011;9097;47.028;15.444;2023-04-25T15:34:18;0.45;;;0.10;;
17943;SDS011;9097;47.028;15.444;2023-04-25T15:37:22;2.42;;;0.50;;
17943;SDS011;9097;47.028;15.444;2023-04-25T15:40:25;0.10;;;0.10;;
17943;SDS011;9097;47.028;15.444;2023-04-25T15:43:28;0.20;;;0.20;;
17943;SDS011;9097;47.028;15.444;2023-04-25T15:46:30;0.22;;;0.22;;
17943;SDS011;9097;47.028;15.444;2023-04-25T15:49:33;0.30;;;0.30;;
17943;SDS011;9097;47.028;15.444;2023-04-25T15:52:37;0.47;;;0.47;;
17943;SDS011;9097;47.028;15.444;2023-04-25T15:55:41;0.25;;;0.25;;
17943;SDS011;9097;47.028;15.444;2023-04-25T15:58:44;0.22;;;0.22;;
17943;SDS011;9097;47.028;15.444;2023-04-25T16:01:46;0.75;;;0.40;;
17943;SDS011;9097;47.028;15.444;2023-04-25T16:04:49;0.30;;;0.30;;
17943;SDS011;9097;47.028;15.444;2023-04-25T16:07:52;0.30;;;0.30;;
17943;SDS011;9097;47.028;15.444;2023-04-25T16:10:55;0.17;;;0.17;;
17943;SDS011;9097;47.028;15.444;2023-04-25T16:13:58;0.20;;;0.20;;
17943;SDS011;9097;47.028;15.444;2023-04-25T16:17:00;0.55;;;0.15;;
17943;SDS011;9097;47.028;15.444;2023-04-25T16:20:03;0.80;;;0.17;;
17943;SDS011;9097;47.028;15.444;2023-04-25T16:23:10;0.10;;;0.10;;
17943;SDS011;9097;47.028;15.444;2023-04-25T16:26:13;0.43;;;0.27;;
17943;SDS011;9097;47.028;15.444;2023-04-25T16:29:15;0.20;;;0.20;;
17943;SDS011;9097;47.028;15.444;2023-04-25T16:32:19;0.10;;;0.10;;
17943;SDS011;9097;47.028;15.444;2023-04-25T16:35:22;0.10;;;0.10;;
17943;SDS011;9097;47.028;15.444;2023-04-25T16:38:26;0.20;;;0.20;;
17943;SDS011;9097;47.028;15.444;2023-04-25T16:41:28;0.10;;;0.10;;
17943;SDS011;9097;47.028;15.444;2023-04-25T16:44:31;0.20;;;0.20;;
17943;SDS011;9097;47.028;15.444;2023-04-25T16:47:33;0.47;;;0.40;;
17943;SDS011;9097;47.028;15.444;2023-04-25T16:50:36;0.27;;;0.20;;
17943;SDS011;9097;47.028;15.444;2023-04-25T16:53:39;0.73;;;0.30;;
17943;SDS011;9097;47.028;15.444;2023-04-25T16:56:42;0.52;;;0.30;;
17943;SDS011;9097;47.028;15.444;2023-04-25T16:59:46;0.00;;;0.00;;
17943;SDS011;9097;47.028;15.444;2023-04-25T17:02:51;0.22;;;0.20;;
17943;SDS011;9097;47.028;15.444;2023-04-25T17:05:54;0.20;;;0.20;;
17943;SDS011;9097;47.028;15.444;2023-04-25T17:08:58;0.38;;;0.38;;
17943;SDS011;9097;47.028;15.444;2023-04-25T17:12:01;0.32;;;0.28;;
17943;SDS011;9097;47.028;15.444;2023-04-25T17:15:04;0.32;;;0.17;;
17943;SDS011;9097;47.028;15.444;2023-04-25T17:18:07;0.17;;;0.10;;
17943;SDS011;9097;47.028;15.444;2023-04-25T17:21:10;0.25;;;0.25;;
17943;SDS011;9097;47.028;15.444;2023-04-25T17:24:14;0.20;;;0.20;;
17943;SDS011;9097;47.028;15.444;2023-04-25T17:27:20;0.10;;;0.10;;
17943;SDS011;9097;47.028;15.444;2023-04-25T17:30:22;0.63;;;0.63;;
17943;SDS011;9097;47.028;15.444;2023-04-25T17:33:25;0.23;;;0.23;;
17943;SDS011;9097;47.028;15.444;2023-04-25T17:36:28;0.10;;;0.10;;
17943;SDS011;9097;47.028;15.444;2023-04-25T17:39:32;0.10;;;0.10;;
17943;SDS011;9097;47.028;15.444;2023-04-25T17:42:35;0.33;;;0.33;;
17943;SDS011;9097;47.028;15.444;2023-04-25T17:45:37;1.03;;;0.10;;
17943;SDS011;9097;47.028;15.444;2023-04-25T17:48:40;0.93;;;0.43;;
17943;SDS011;9097;47.028;15.444;2023-04-25T17:51:42;0.97;;;0.30;;
17943;SDS011;9097;47.028;15.444;2023-04-25T17:54:46;0.20;;;0.10;;
17943;SDS011;9097;47.028;15.444;2023-04-25T17:57:49;0.40;;;0.30;;
17943;SDS011;9097;47.028;15.444;2023-04-25T18:00:51;0.43;;;0.20;;
17943;SDS011;9097;47.028;15.444;2023-04-25T18:03:54;0.40;;;0.33;;
17943;SDS011;9097;47.028;15.444;2023-04-25T18:06:57;0.43;;;0.20;;
17943;SDS011;9097;47.028;15.444;2023-04-25T18:10:01;0.77;;;0.30;;
17943;SDS011;9097;47.028;15.444;2023-04-25T18:13:07;0.30;;;0.30;;
17943;SDS011;9097;47.028;15.444;2023-04-25T18:16:13;0.13;;;0.13;;
17943;SDS011;9097;47.028;15.444;2023-04-25T18:19:29;0.33;;;0.30;;
17943;SDS011;9097;47.028;15.444;2023-04-25T18:22:50;0.20;;;0.20;;
17943;SDS011;9097;47.028;15.444;2023-04-25T18:25:54;0.90;;;0.27;;